createdAt,value
2022-11-29T00:01:23.332Z,9.95
2022-11-29T00:03:50.117Z,10.90
2022-11-29T00:06:18.908Z,10.63
2022-11-29T00:08:45.481Z,10.55
2022-11-29T00:11:16.463Z,11.43
2022-11-29T00:13:42.867Z,11.57
2022-11-29T00:16:10.543Z,11.45
2022-11-29T00:18:37.050Z,11.60
2022-11-29T00:21:07.448Z,11.77
2022-11-29T00:23:34.338Z,11.32
2022-11-29T00:26:05.226Z,12.38
2022-11-29T00:28:31.616Z,11.90
2022-11-29T00:30:58.072Z,12.50
2022-11-29T00:33:24.513Z,12.57
2022-11-29T00:35:50.955Z,13.02
2022-11-29T00:38:17.332Z,12.32
2022-11-29T00:40:43.832Z,12.50
2022-11-29T00:43:10.226Z,11.98
2022-11-29T00:45:36.690Z,12.80
2022-11-29T00:48:03.100Z,12.95
2022-11-29T00:50:29.471Z,13.43
2022-11-29T00:52:55.875Z,13.30
2022-11-29T00:55:22.261Z,11.70
2022-11-29T00:57:48.684Z,13.68
2022-11-29T01:00:15.720Z,12.07
2022-11-29T01:02:42.161Z,13.50
2022-11-29T01:05:08.754Z,12.63
2022-11-29T01:07:35.196Z,12.43
2022-11-29T01:10:01.604Z,12.48
2022-11-29T01:12:28.014Z,13.57
2022-11-29T01:14:54.521Z,14.20
2022-11-29T01:17:20.923Z,13.27
2022-11-29T01:19:50.778Z,12.35
2022-11-29T01:22:17.581Z,11.57
2022-11-29T01:24:44.279Z,12.60
2022-11-29T01:27:11.052Z,13.00
2022-11-29T01:29:37.450Z,13.18
2022-11-29T01:32:04.054Z,12.02
2022-11-29T01:34:30.538Z,14.38
2022-11-29T01:36:56.928Z,12.60
2022-11-29T01:39:23.333Z,12.75
2022-11-29T01:41:49.766Z,11.98
2022-11-29T01:44:16.050Z,13.65
2022-11-29T01:46:43.828Z,15.43
2022-11-29T01:49:23.050Z,13.55
2022-11-29T01:52:25.767Z,14.25
2022-11-29T01:54:55.669Z,13.63
2022-11-29T01:59:49.647Z,13.90
2022-11-29T02:02:20.818Z,14.98
2022-11-29T02:04:47.540Z,13.77
2022-11-29T02:07:14.278Z,15.43
2022-11-29T02:09:40.741Z,13.85
2022-11-29T02:12:25.312Z,13.80
2022-11-29T02:15:18.674Z,14.20
2022-11-29T02:18:00.039Z,14.90
2022-11-29T02:20:35.653Z,14.30
2022-11-29T02:23:16.952Z,15.63
2022-11-29T02:25:57.842Z,14.00
2022-11-29T02:28:24.142Z,13.45
2022-11-29T02:30:57.583Z,15.95
2022-11-29T02:33:44.211Z,14.25
2022-11-29T02:36:16.364Z,14.70
2022-11-29T02:38:57.945Z,13.73
2022-11-29T02:41:42.717Z,14.95
2022-11-29T02:44:14.844Z,13.23
2022-11-29T02:46:59.537Z,14.82
2022-11-29T02:50:03.452Z,14.07
2022-11-29T02:52:36.926Z,13.82
2022-11-29T02:55:15.923Z,16.13
2022-11-29T02:57:56.096Z,15.73
2022-11-29T03:00:22.485Z,14.60
2022-11-29T03:02:51.932Z,15.38
2022-11-29T03:05:37.199Z,14.57
2022-11-29T03:08:21.773Z,13.93
2022-11-29T03:10:58.087Z,14.20
2022-11-29T03:13:46.423Z,15.52
2022-11-29T03:16:23.600Z,14.57
2022-11-29T03:19:21.340Z,15.27
2022-11-29T03:22:12.825Z,15.68
2022-11-29T03:24:49.043Z,13.80
2022-11-29T03:27:23.878Z,15.00
2022-11-29T03:29:58.878Z,15.65
2022-11-29T03:32:54.530Z,16.60
2022-11-29T03:35:40.844Z,15.25
2022-11-29T03:38:43.790Z,13.73
2022-11-29T03:41:10.132Z,12.88
2022-11-29T03:43:41.866Z,14.40
2022-11-29T03:46:15.995Z,14.60
2022-11-29T03:48:46.745Z,13.95
2022-11-29T03:51:26.441Z,15.13
2022-11-29T03:53:57.220Z,15.20
2022-11-29T03:56:34.500Z,15.95
2022-11-29T03:59:03.739Z,15.77
2022-11-29T04:01:55.061Z,14.77
2022-11-29T04:04:53.405Z,15.30
2022-11-29T04:07:28.666Z,15.07
2022-11-29T04:10:17.123Z,16.33
2022-11-29T04:13:11.772Z,16.52
2022-11-29T04:15:50.062Z,15.07
2022-11-29T04:18:34.807Z,15.27
2022-11-29T04:21:04.057Z,15.77
2022-11-29T04:23:52.255Z,15.70
2022-11-29T04:26:34.978Z,15.65
2022-11-29T04:29:20.211Z,15.77
2022-11-29T04:32:20.600Z,15.65
2022-11-29T04:34:58.760Z,14.65
2022-11-29T04:37:42.157Z,15.25
2022-11-29T04:40:23.605Z,14.90
2022-11-29T04:42:52.969Z,15.50
2022-11-29T04:45:36.031Z,15.85
2022-11-29T04:48:39.046Z,14.73
2022-11-29T04:51:14.433Z,14.18
2022-11-29T04:53:57.189Z,15.32
2022-11-29T04:56:42.225Z,15.55
2022-11-29T04:59:18.104Z,16.25
2022-11-29T05:02:07.189Z,17.02
2022-11-29T05:05:00.839Z,16.25
2022-11-29T05:07:56.314Z,14.50
2022-11-29T05:10:35.283Z,17.35
2022-11-29T05:13:19.875Z,14.45
2022-11-29T05:16:08.215Z,15.45
2022-11-29T05:18:59.241Z,16.20
2022-11-29T05:21:34.505Z,15.82
2022-11-29T05:24:11.953Z,16.40
2022-11-29T05:26:48.531Z,17.52
2022-11-29T05:29:29.818Z,16.52
2022-11-29T05:32:02.113Z,16.10
2022-11-29T05:34:37.546Z,16.55
2022-11-29T05:37:22.654Z,15.40
2022-11-29T05:40:11.458Z,16.67
2022-11-29T05:43:07.095Z,17.05
2022-11-29T05:45:53.298Z,16.95
2022-11-29T05:48:57.294Z,16.05
2022-11-29T05:51:29.625Z,16.50
2022-11-29T05:54:23.521Z,17.10
2022-11-29T05:57:01.355Z,17.40
2022-11-29T05:59:28.549Z,15.95
2022-11-29T06:02:16.714Z,16.38
2022-11-29T06:05:12.819Z,16.10
2022-11-29T06:07:41.676Z,17.90
2022-11-29T06:10:12.084Z,15.95
2022-11-29T06:12:38.857Z,16.58
2022-11-29T06:15:56.955Z,16.13
2022-11-29T06:18:44.915Z,18.17
2022-11-29T06:21:29.118Z,16.38
2022-11-29T06:24:26.221Z,15.65
2022-11-29T06:27:29.744Z,17.30
2022-11-29T06:30:18.137Z,17.30
2022-11-29T06:33:05.836Z,17.90
2022-11-29T06:38:27.485Z,15.95
2022-11-29T06:41:00.098Z,16.60
2022-11-29T06:43:28.325Z,17.95
2022-11-29T06:46:10.336Z,17.13
2022-11-29T06:48:47.210Z,17.80
2022-11-29T06:51:31.475Z,16.90
2022-11-29T06:54:33.243Z,17.42
2022-11-29T06:57:34.504Z,16.02
2022-11-29T07:00:08.898Z,16.67
2022-11-29T07:02:44.432Z,15.95
2022-11-29T07:05:30.160Z,17.20
2022-11-29T07:08:16.529Z,17.00
2022-11-29T07:10:43.578Z,16.52
2022-11-29T07:13:13.312Z,18.60
2022-11-29T07:15:51.333Z,17.85
2022-11-29T07:18:27.820Z,18.00
2022-11-29T07:21:07.277Z,16.50
2022-11-29T07:24:01.642Z,16.15
2022-11-29T07:26:40.224Z,17.15
2022-11-29T07:29:06.570Z,16.52
2022-11-29T07:31:45.710Z,16.55
2022-11-29T07:34:23.497Z,16.55
2022-11-29T07:37:13.095Z,16.58
2022-11-29T07:39:42.383Z,17.75
2022-11-29T07:42:15.233Z,17.35
2022-11-29T07:45:15.298Z,16.77
2022-11-29T07:47:41.724Z,15.90
2022-11-29T07:50:08.341Z,16.10
2022-11-29T07:52:34.819Z,18.67
2022-11-29T07:55:01.783Z,17.58
2022-11-29T07:57:28.230Z,16.88
2022-11-29T07:59:54.654Z,18.40
2022-11-29T08:02:33.840Z,17.27
2022-11-29T08:05:00.442Z,17.40
2022-11-29T08:07:31.173Z,18.90
2022-11-29T08:09:58.831Z,17.45
2022-11-29T08:12:25.978Z,18.70
2022-11-29T08:14:52.495Z,17.05
2022-11-29T08:17:18.882Z,16.15
2022-11-29T08:19:45.356Z,18.13
2022-11-29T08:22:12.308Z,17.33
2022-11-29T08:24:38.713Z,16.48
2022-11-29T08:27:05.161Z,17.85
2022-11-29T08:29:31.566Z,16.35
2022-11-29T08:31:58.072Z,17.52
2022-11-29T08:34:24.635Z,18.45
2022-11-29T08:36:51.153Z,16.67
2022-11-29T08:39:17.534Z,18.13
2022-11-29T08:41:43.941Z,17.55
2022-11-29T08:44:10.347Z,16.85
2022-11-29T08:46:36.764Z,18.15
2022-11-29T08:49:03.184Z,19.67
2022-11-29T08:51:29.576Z,19.33
2022-11-29T08:53:56.031Z,19.77
2022-11-29T08:59:08.845Z,19.17
2022-11-29T09:01:35.294Z,18.63
2022-11-29T09:04:01.758Z,17.85
2022-11-29T09:06:32.924Z,19.35
2022-11-29T09:08:59.649Z,17.25
2022-11-29T09:11:27.041Z,18.80
2022-11-29T09:13:55.669Z,18.40
2022-11-29T09:16:24.051Z,17.60
2022-11-29T09:18:52.186Z,17.85
2022-11-29T09:21:18.884Z,16.58
2022-11-29T09:23:45.626Z,18.10
2022-11-29T09:26:16.391Z,18.60
2022-11-29T09:28:42.787Z,17.45
2022-11-29T09:31:14.563Z,18.23
2022-11-29T09:33:41.105Z,17.65
2022-11-29T09:36:08.630Z,18.17
2022-11-29T09:38:35.126Z,17.50
2022-11-29T09:41:21.638Z,16.73
2022-11-29T09:44:09.838Z,17.92
2022-11-29T09:46:58.945Z,17.65
2022-11-29T09:49:40.343Z,16.23
2022-11-29T09:52:36.835Z,16.73
2022-11-29T09:55:26.419Z,15.77
2022-11-29T09:57:53.213Z,17.40
2022-11-29T10:00:20.089Z,16.80
2022-11-29T10:02:52.937Z,17.98
2022-11-29T10:05:28.730Z,15.98
2022-11-29T10:10:42.800Z,16.33
2022-11-29T10:13:41.958Z,17.15
2022-11-29T10:16:36.119Z,17.42
2022-11-29T10:19:05.861Z,17.05
2022-11-29T10:21:36.466Z,17.48
2022-11-29T10:24:05.017Z,17.45
2022-11-29T10:26:35.141Z,19.27
2022-11-29T10:29:02.043Z,18.25
2022-11-29T10:31:38.113Z,17.75
2022-11-29T10:34:13.662Z,16.42
2022-11-29T10:36:51.007Z,16.95
2022-11-29T10:39:52.263Z,17.02
2022-11-29T10:42:20.734Z,17.58
2022-11-29T10:44:47.429Z,18.23
2022-11-29T10:47:13.987Z,17.33
2022-11-29T10:49:40.477Z,19.58
2022-11-29T10:52:19.469Z,18.27
2022-11-29T10:54:46.090Z,17.77
2022-11-29T10:57:22.105Z,20.08
2022-11-29T11:00:09.482Z,18.33
2022-11-29T11:02:35.958Z,18.08
2022-11-29T11:05:03.023Z,19.08
2022-11-29T11:07:33.474Z,19.05
2022-11-29T11:09:59.987Z,19.33
2022-11-29T11:12:28.411Z,19.00
2022-11-29T11:15:13.157Z,19.67
2022-11-29T11:17:39.559Z,17.45
2022-11-29T11:20:18.939Z,18.25
2022-11-29T11:22:45.345Z,21.00
2022-11-29T11:25:38.351Z,20.42
2022-11-29T11:28:20.817Z,18.67
2022-11-29T11:30:58.292Z,19.40
2022-11-29T11:33:26.475Z,20.02
2022-11-29T11:36:21.596Z,19.98
2022-11-29T11:39:10.712Z,18.60
2022-11-29T11:41:43.258Z,19.13
2022-11-29T11:44:45.681Z,18.55
2022-11-29T11:47:16.067Z,19.25
2022-11-29T11:50:00.670Z,17.40
2022-11-29T11:52:41.351Z,17.05
2022-11-29T11:55:22.106Z,19.17
2022-11-29T11:58:13.636Z,20.30
2022-11-29T12:01:02.967Z,17.63
2022-11-29T12:03:40.063Z,18.92
2022-11-29T12:06:35.194Z,19.70
2022-11-29T12:09:30.837Z,21.13
2022-11-29T12:12:03.371Z,19.38
2022-11-29T12:14:38.353Z,19.75
2022-11-29T12:17:37.103Z,20.35
2022-11-29T12:20:09.678Z,18.92
2022-11-29T12:22:58.102Z,18.73
2022-11-29T12:25:27.013Z,18.05
2022-11-29T12:27:53.437Z,20.67
2022-11-29T12:30:19.876Z,20.52
2022-11-29T12:32:49.902Z,21.33
2022-11-29T12:35:57.936Z,20.52
2022-11-29T12:38:52.226Z,17.90
2022-11-29T12:41:39.961Z,19.77
2022-11-29T12:46:38.798Z,17.20
2022-11-29T12:49:17.174Z,19.98
2022-11-29T12:51:55.603Z,20.70
2022-11-29T12:54:40.815Z,20.15
2022-11-29T12:57:25.402Z,19.10
2022-11-29T13:00:00.843Z,19.65
2022-11-29T13:02:31.420Z,18.73
2022-11-29T13:05:09.612Z,19.80
2022-11-29T13:07:39.039Z,19.40
2022-11-29T13:10:18.005Z,19.83
2022-11-29T13:12:47.812Z,18.70
2022-11-29T13:15:19.430Z,19.95
2022-11-29T13:18:23.876Z,19.67
2022-11-29T13:20:50.579Z,18.60
2022-11-29T13:23:45.474Z,19.38
2022-11-29T13:26:12.717Z,20.35
2022-11-29T13:28:42.594Z,18.38
2022-11-29T13:31:27.223Z,19.33
2022-11-29T13:34:04.137Z,19.40
2022-11-29T13:37:07.447Z,19.05
2022-11-29T13:39:56.002Z,18.77
2022-11-29T13:42:34.152Z,17.95
2022-11-29T13:45:28.456Z,19.38
2022-11-29T13:47:57.623Z,20.20
2022-11-29T13:50:39.911Z,19.90
2022-11-29T13:53:21.404Z,18.85
2022-11-29T13:55:50.002Z,22.08
2022-11-29T13:58:28.598Z,20.02
2022-11-29T14:01:00.246Z,18.83
2022-11-29T14:03:38.764Z,19.42
2022-11-29T14:06:15.211Z,19.15
2022-11-29T14:11:48.875Z,20.55
2022-11-29T14:14:21.516Z,18.38
2022-11-29T14:16:50.418Z,20.25
2022-11-29T14:19:24.704Z,18.38
2022-11-29T14:22:16.741Z,19.67
2022-11-29T14:24:43.617Z,19.63
2022-11-29T14:27:13.225Z,19.88
2022-11-29T14:29:48.896Z,19.30
2022-11-29T14:32:46.377Z,20.05
2022-11-29T14:35:12.958Z,19.48
2022-11-29T14:38:10.257Z,18.00
2022-11-29T14:40:46.479Z,19.40
2022-11-29T14:43:32.564Z,20.55
2022-11-29T14:46:14.171Z,20.63
2022-11-29T14:48:55.561Z,19.88
2022-11-29T14:51:23.040Z,19.92
2022-11-29T14:54:00.598Z,20.35
2022-11-29T14:56:30.136Z,18.92
2022-11-29T14:59:34.085Z,21.50
2022-11-29T15:02:19.439Z,19.80
2022-11-29T15:04:46.530Z,20.05
2022-11-29T15:07:15.113Z,21.05
2022-11-29T15:09:41.529Z,20.02
2022-11-29T15:12:28.562Z,21.50
2022-11-29T15:15:10.296Z,20.40
2022-11-29T15:20:38.680Z,18.02
2022-11-29T15:23:07.622Z,20.33
2022-11-29T15:25:34.350Z,20.40
2022-11-29T15:28:02.522Z,21.15
2022-11-29T15:30:44.428Z,22.10
2022-11-29T15:33:22.505Z,20.15
2022-11-29T15:35:53.994Z,19.92
2022-11-29T15:38:21.135Z,23.55
2022-11-29T15:40:51.273Z,20.98
2022-11-29T15:43:21.724Z,21.38
2022-11-29T15:45:52.331Z,22.02
2022-11-29T15:48:18.692Z,22.85
2022-11-29T15:51:02.276Z,21.58
2022-11-29T15:53:42.199Z,19.98
2022-11-29T15:56:50.398Z,22.05
2022-11-29T15:59:22.318Z,19.75
2022-11-29T16:01:50.013Z,19.83
2022-11-29T16:04:19.509Z,21.15
2022-11-29T16:06:45.942Z,20.17
2022-11-29T16:09:17.783Z,21.50
2022-11-29T16:11:44.305Z,20.52
2022-11-29T16:14:10.605Z,20.98
2022-11-29T16:16:37.755Z,20.27
2022-11-29T16:19:21.845Z,20.15
2022-11-29T16:22:10.145Z,20.63
2022-11-29T16:24:40.962Z,21.13
2022-11-29T16:27:07.390Z,23.45
2022-11-29T16:29:38.143Z,21.95
2022-11-29T16:32:26.327Z,18.25
2022-11-29T16:34:52.850Z,22.38
2022-11-29T16:37:26.484Z,20.35
2022-11-29T16:39:56.959Z,19.75
2022-11-29T16:42:33.258Z,21.40
2022-11-29T16:45:02.850Z,21.75
2022-11-29T16:47:30.774Z,23.95
2022-11-29T16:50:08.862Z,19.85
2022-11-29T16:52:37.744Z,20.52
2022-11-29T16:55:04.321Z,22.35
2022-11-29T16:57:30.825Z,20.08
2022-11-29T16:59:57.544Z,20.50
2022-11-29T17:02:24.051Z,21.33
2022-11-29T17:04:50.954Z,21.45
2022-11-29T17:07:31.811Z,21.75
2022-11-29T17:09:58.302Z,21.40
2022-11-29T17:12:24.863Z,21.27
2022-11-29T17:14:51.270Z,22.15
2022-11-29T17:17:18.375Z,20.85
2022-11-29T17:19:44.895Z,21.55
2022-11-29T17:22:11.752Z,22.38
2022-11-29T17:24:43.548Z,21.25
2022-11-29T17:29:40.266Z,19.60
2022-11-29T17:32:06.776Z,21.05
2022-11-29T17:34:33.310Z,23.13
2022-11-29T17:36:59.710Z,22.42
2022-11-29T17:39:32.097Z,21.55
2022-11-29T17:41:58.555Z,22.98
2022-11-29T17:44:25.081Z,21.65
2022-11-29T17:46:51.659Z,22.73
2022-11-29T17:49:18.032Z,22.58
2022-11-29T17:51:53.088Z,21.15
2022-11-29T17:54:20.441Z,22.50
2022-11-29T17:56:46.872Z,24.50
2022-11-29T17:59:13.259Z,22.52
2022-11-29T18:01:39.795Z,22.95
2022-11-29T18:04:06.319Z,22.45
2022-11-29T18:06:37.287Z,23.23
2022-11-29T18:09:04.447Z,20.88
2022-11-29T18:11:45.339Z,20.80
2022-11-29T18:14:15.838Z,21.45
2022-11-29T18:16:42.389Z,23.63
2022-11-29T18:19:11.193Z,23.13
2022-11-29T18:21:37.681Z,21.58
2022-11-29T18:24:05.072Z,22.75
2022-11-29T18:26:31.954Z,23.42
2022-11-29T18:28:58.822Z,23.90
2022-11-29T18:31:28.159Z,21.02
2022-11-29T18:33:56.843Z,21.40
2022-11-29T18:36:31.249Z,21.33
2022-11-29T18:38:59.229Z,23.02
2022-11-29T18:41:26.006Z,23.52
2022-11-29T18:44:03.340Z,23.33
2022-11-29T18:46:29.876Z,22.73
2022-11-29T18:48:56.333Z,23.20
2022-11-29T18:51:22.872Z,23.40
2022-11-29T18:53:49.297Z,24.10
2022-11-29T18:56:17.502Z,23.38
2022-11-29T18:58:44.870Z,22.17
2022-11-29T19:01:13.058Z,23.17
2022-11-29T19:03:41.359Z,21.90
2022-11-29T19:06:09.733Z,23.05
2022-11-29T19:08:36.286Z,22.15
2022-11-29T19:11:06.302Z,21.20
2022-11-29T19:13:33.104Z,23.33
2022-11-29T19:15:59.724Z,21.77
2022-11-29T19:18:26.181Z,21.17
2022-11-29T19:20:52.605Z,23.80
2022-11-29T19:23:19.875Z,22.10
2022-11-29T19:25:46.471Z,21.35
2022-11-29T19:28:14.375Z,22.10
2022-11-29T19:30:41.058Z,24.13
2022-11-29T19:33:07.895Z,22.42
2022-11-29T19:35:34.631Z,21.33
2022-11-29T19:38:01.016Z,22.60
2022-11-29T19:40:27.442Z,23.83
2022-11-29T19:42:53.851Z,21.92
2022-11-29T19:45:20.283Z,21.60
2022-11-29T19:47:46.684Z,21.75
2022-11-29T19:50:13.089Z,22.08
2022-11-29T19:52:39.514Z,21.52
2022-11-29T19:55:06.268Z,22.60
2022-11-29T19:57:33.036Z,22.70
2022-11-29T19:59:59.513Z,23.52
2022-11-29T20:02:27.021Z,22.52
2022-11-29T20:04:53.709Z,22.52
2022-11-29T20:07:20.422Z,23.05
2022-11-29T20:09:47.558Z,22.55
2022-11-29T20:12:14.244Z,22.40
2022-11-29T20:14:40.677Z,22.25
2022-11-29T20:17:07.111Z,22.70
2022-11-29T20:19:34.047Z,24.02
2022-11-29T20:22:00.533Z,23.35
2022-11-29T20:24:27.014Z,22.40
2022-11-29T20:26:53.521Z,22.60
2022-11-29T20:29:20.008Z,22.60
2022-11-29T20:31:50.795Z,23.45
2022-11-29T20:34:18.028Z,21.42
2022-11-29T20:37:09.380Z,21.45
2022-11-29T20:39:44.029Z,20.50
2022-11-29T20:42:29.091Z,23.25
2022-11-29T20:44:57.357Z,22.52
2022-11-29T20:47:30.468Z,23.23
2022-11-29T20:49:57.136Z,21.15
2022-11-29T20:52:44.598Z,22.60
2022-11-29T20:55:13.718Z,22.08
2022-11-29T20:57:44.500Z,23.17
2022-11-29T21:00:11.847Z,21.27
2022-11-29T21:02:38.591Z,22.23
2022-11-29T21:05:05.824Z,23.55
2022-11-29T21:07:32.408Z,23.10
2022-11-29T21:10:01.348Z,24.33
2022-11-29T21:12:29.314Z,22.52
2022-11-29T21:14:56.112Z,21.40
2022-11-29T21:17:22.746Z,21.98
2022-11-29T21:19:52.139Z,24.55
2022-11-29T21:22:34.200Z,20.98
2022-11-29T21:25:31.226Z,21.95
2022-11-29T21:28:01.070Z,20.33
2022-11-29T21:32:56.608Z,20.10
2022-11-29T21:35:23.009Z,23.40
2022-11-29T21:37:49.447Z,21.38
2022-11-29T21:40:17.205Z,23.85
2022-11-29T21:42:43.701Z,21.58
2022-11-29T21:45:15.343Z,24.20
2022-11-29T21:47:43.744Z,23.55
2022-11-29T21:50:11.442Z,22.48
2022-11-29T21:52:40.199Z,24.05
2022-11-29T21:55:06.856Z,21.20
2022-11-29T21:57:33.269Z,22.50
2022-11-29T22:00:00.113Z,22.75
2022-11-29T22:02:26.644Z,22.70
2022-11-29T22:04:53.228Z,22.98
2022-11-29T22:07:19.684Z,22.67
2022-11-29T22:09:46.107Z,22.90
2022-11-29T22:12:32.341Z,23.85
2022-11-29T22:14:58.927Z,23.73
2022-11-29T22:17:25.359Z,21.00
2022-11-29T22:19:51.797Z,22.23
2022-11-29T22:22:18.227Z,22.23
2022-11-29T22:24:44.841Z,21.83
2022-11-29T22:27:11.595Z,22.77
2022-11-29T22:29:38.035Z,21.15
2022-11-29T22:32:04.704Z,21.48
2022-11-29T22:34:31.109Z,24.02
2022-11-29T22:36:57.539Z,21.83
2022-11-29T22:39:26.078Z,21.85
2022-11-29T22:41:54.891Z,21.85
2022-11-29T22:44:21.784Z,20.48
2022-11-29T22:46:48.493Z,20.92
2022-11-29T22:49:15.015Z,21.58
2022-11-29T22:51:41.499Z,20.70
2022-11-29T22:54:09.029Z,21.65
2022-11-29T22:56:36.870Z,22.25
2022-11-29T22:59:03.845Z,21.80
2022-11-29T23:01:31.227Z,20.92
2022-11-29T23:03:59.426Z,21.83
2022-11-29T23:06:30.335Z,21.33
2022-11-29T23:08:58.209Z,21.60
2022-11-29T23:11:28.401Z,20.63
2022-11-29T23:13:54.866Z,22.65
2022-11-29T23:16:23.291Z,24.65
2022-11-29T23:18:49.743Z,20.00
2022-11-29T23:21:31.418Z,20.60
2022-11-29T23:26:27.780Z,20.08
2022-11-29T23:28:54.529Z,19.35
2022-11-29T23:31:21.060Z,21.15
2022-11-29T23:33:47.595Z,19.67
2022-11-29T23:36:14.300Z,22.58
2022-11-29T23:38:40.715Z,22.75
2022-11-29T23:41:07.356Z,22.20
2022-11-29T23:43:35.722Z,19.83
2022-11-29T23:46:06.332Z,20.27
2022-11-29T23:48:32.827Z,20.95
2022-11-29T23:50:59.225Z,21.00
2022-11-29T23:53:25.650Z,20.73
2022-11-29T23:56:12.346Z,21.13
2022-11-29T23:58:38.870Z,19.17
